YM Initiative — A8HX4 — position and weather

sailwx.info

Track history (hours):
 
Tides and Currents Weather Stations Pressure Air Temp Water Temp Dewpoint Dewpoint Depression Visibility Wind Speed Wind Dir Waves Ship Positions

YM Initiative

Last reported at 2016-Jul-24 18:30 UTC. Time now 2016-Jul-30 01:54 UTC.
Position N 02°03' E 102°09'.

Length 173 m; draft 7.7 m.

Type: Cargo ship. MMSI: 635961368.

Date/timePositionNaut miles runAvg speedWind from/ knotsBaromVisibWave heightAir tempDewpointWater temp
2016-Jul-24 18:30N 02°03' E 102°09'9 9.7
2016-Jul-24 17:34N 01°58' E 102°16'9 8.8
2016-Jul-24 16:33N 01°54' E 102°24'8 8.6
2016-Jul-24 15:33N 01°50' E 102°32'9 8.7
2016-Jul-24 14:32N 01°46' E 102°40'9 9.2
2016-Jul-24 13:33N 01°43' E 102°48'5811.4
2016-Jul-24 08:27N 01°12' E 103°38'9 9.7
2016-Jul-24 07:33N 01°16' E 103°45'2 1.4
2016-Jul-24 06:30N 01°16' E 103°47'0 0.0
2016-Jul-24 05:30N 01°16' E 103°47'0 0.0
2016-Jul-24 04:33N 01°16' E 103°47'0 0.0
2016-Jul-24 03:33N 01°16' E 103°47'0 0.0
2016-Jul-24 02:30N 01°16' E 103°47'0 0.0
2016-Jul-24 01:24N 01°16' E 103°47'0 0.0
2016-Jul-24 00:33N 01°16' E 103°47'0 0.0
2016-Jul-23 23:33N 01°16' E 103°47'0 0.1
2016-Jul-23 22:33N 01°16' E 103°46'0 0.1
2016-Jul-23 21:30N 01°16' E 103°47'0 0.0
2016-Jul-23 20:30N 01°16' E 103°47'0 0.0
2016-Jul-23 19:30N 01°16' E 103°47'0 0.0
2016-Jul-23 18:30N 01°16' E 103°47'0 0.0
2016-Jul-23 17:18N 01°16' E 103°47'0 0.0
2016-Jul-23 16:30N 01°16' E 103°47'0 0.0
2016-Jul-23 15:34N 01°16' E 103°47'7 7.0
2016-Jul-23 14:33N 01°13' E 103°41'6 6.2
2016-Jul-23 13:31N 01°12' E 103°34'39 9.3
2016-Jul-23 09:19N 01°30' E 102°59'1216.0
2016-Jul-23 08:33N 01°36' E 102°49'2316.1
2016-Jul-23 07:09N 01°47' E 102°29'1016.5
2016-Jul-23 06:33N 01°51' E 102°20'  
Track history (hours):
 
Tides and Currents Weather Stations Pressure Air Temp Water Temp Dewpoint Dewpoint Depression Visibility Wind Speed Wind Dir Waves Ship Positions

YM Initiative

Last reported at 2016-Jul-24 18:30 UTC. Time now 2016-Jul-30 01:54 UTC.
Position N 02°03' E 102°09'.

Length 173 m; draft 7.7 m.

Type: Cargo ship. MMSI: 635961368.

Date/timePositionNaut miles runAvg speedWind from/ knotsBaromVisibWave heightAir tempDewpointWater temp
2016-Jul-24 18:30N 02°03' E 102°09'9 9.7
2016-Jul-24 17:34N 01°58' E 102°16'9 8.8
2016-Jul-24 16:33N 01°54' E 102°24'8 8.6
2016-Jul-24 15:33N 01°50' E 102°32'9 8.7
2016-Jul-24 14:32N 01°46' E 102°40'9 9.2
2016-Jul-24 13:33N 01°43' E 102°48'5811.4
2016-Jul-24 08:27N 01°12' E 103°38'9 9.7
2016-Jul-24 07:33N 01°16' E 103°45'2 1.4
2016-Jul-24 06:30N 01°16' E 103°47'0 0.0
2016-Jul-24 05:30N 01°16' E 103°47'0 0.0
2016-Jul-24 04:33N 01°16' E 103°47'0 0.0
2016-Jul-24 03:33N 01°16' E 103°47'0 0.0
2016-Jul-24 02:30N 01°16' E 103°47'0 0.0
2016-Jul-24 01:24N 01°16' E 103°47'0 0.0
2016-Jul-24 00:33N 01°16' E 103°47'0 0.0
2016-Jul-23 23:33N 01°16' E 103°47'0 0.1
2016-Jul-23 22:33N 01°16' E 103°46'0 0.1
2016-Jul-23 21:30N 01°16' E 103°47'0 0.0
2016-Jul-23 20:30N 01°16' E 103°47'0 0.0
2016-Jul-23 19:30N 01°16' E 103°47'0 0.0
2016-Jul-23 18:30N 01°16' E 103°47'0 0.0
2016-Jul-23 17:18N 01°16' E 103°47'0 0.0
2016-Jul-23 16:30N 01°16' E 103°47'0 0.0
2016-Jul-23 15:34N 01°16' E 103°47'7 7.0
2016-Jul-23 14:33N 01°13' E 103°41'6 6.2
2016-Jul-23 13:31N 01°12' E 103°34'39 9.3
2016-Jul-23 09:19N 01°30' E 102°59'1216.0
2016-Jul-23 08:33N 01°36' E 102°49'2316.1
2016-Jul-23 07:09N 01°47' E 102°29'1016.5
2016-Jul-23 06:33N 01°51' E 102°20'  

Dump ship's entire track history